Terminal Aerodrome Forecast
Issued by NWS

Current Version | Previous Version | Graphics & Text | Print | Product List | Glossary On
Versions: 1 2 3 4 5 6 7 8 9 10 11 12 13 14 15 16 17 18 19
715
FTUS41 KILN 210225 AAA
TAFLUK
TAF AMD
KLUK 210225Z 2102/2124 06005KT P6SM VCSH OVC050
      TEMPO 2102/2104 5SM -SHRA BR OVC018
     FM210400 VRB03KT P6SM -SHRA OVC018
     FM210600 03002KT 4SM BR OVC016
     FM211100 01005KT P6SM OVC025
     FM211400 01006KT P6SM BKN035
     FM211500 36009KT P6SM BKN150=

USA.gov is the U.S. government's official web portal to all federal, state and local government web resources and services.